Time;durP1;ratioP1;P1;durP2;ratioP2;P2;SDS_P1;SDS_P2;PMS_P1;PMS_P2;Temp;Humidity;BMP_temperature;BMP_pressure;BME280_temperature;BME280_humidity;BME280_pressure;Samples;Min_cycle;Max_cycle;Signal;HPM_P1;HPM_P2
2021/10/11 00:01:15;;;;;;;5.57;2.28;;;;;;;;;;5016256;28;20055;-59
2021/10/11 00:03:40;;;;;;;8.60;2.08;;;;;;;;;;5030570;28;20037;-59
2021/10/11 00:06:08;;;;;;;8.15;2.15;;;;;;;;;;4991197;28;20143;-59
2021/10/11 00:08:36;;;;;;;13.43;1.95;;;;;;;;;;5017772;28;20062;-60
2021/10/11 00:11:04;;;;;;;10.80;2.15;;;;;;;;;;5011124;28;20025;-60
2021/10/11 00:13:29;;;;;;;18.52;2.85;;;;;;;;;;5034350;28;20410;-59
2021/10/11 00:15:55;;;;;;;11.02;2.10;;;;;;;;;;4995969;28;20025;-59
2021/10/11 00:18:20;;;;;;;4.47;2.28;;;;;;;;;;5001616;28;20025;-58
2021/10/11 00:20:48;;;;;;;12.38;1.85;;;;;;;;;;5032810;28;20029;-59
2021/10/11 00:23:15;;;;;;;13.43;2.28;;;;;;;;;;4998592;28;20033;-60
2021/10/11 00:25:42;;;;;;;12.52;2.60;;;;;;;;;;4999264;28;20067;-60
2021/10/11 00:28:08;;;;;;;5.35;2.08;;;;;;;;;;5032196;28;20028;-58
2021/10/11 00:30:34;;;;;;;10.05;2.13;;;;;;;;;;5002936;28;20122;-59
2021/10/11 00:33:03;;;;;;;15.60;2.45;;;;;;;;;;5016187;28;20116;-59
2021/10/11 00:35:29;;;;;;;13.68;2.65;;;;;;;;;;5030998;28;20036;-59
2021/10/11 00:37:57;;;;;;;10.07;2.17;;;;;;;;;;5030116;28;20040;-59
2021/10/11 00:40:23;;;;;;;15.27;2.47;;;;;;;;;;5033147;28;20048;-59
2021/10/11 00:42:50;;;;;;;11.75;2.67;;;;;;;;;;5014251;28;20079;-59
2021/10/11 00:45:18;;;;;;;13.32;2.50;;;;;;;;;;5017802;28;20037;-59
2021/10/11 00:47:43;;;;;;;13.65;2.22;;;;;;;;;;5013906;28;20557;-59
2021/10/11 00:50:12;;;;;;;12.13;1.98;;;;;;;;;;5031191;28;20051;-58
2021/10/11 00:52:38;;;;;;;9.82;2.30;;;;;;;;;;5003679;28;20434;-59
2021/10/11 00:55:05;;;;;;;10.07;1.98;;;;;;;;;;5012410;28;20020;-59
2021/10/11 00:57:33;;;;;;;11.00;2.10;;;;;;;;;;5014314;28;20039;-59
2021/10/11 01:00:01;;;;;;;9.65;2.08;;;;;;;;;;5013661;28;20377;-59
2021/10/11 01:02:27;;;;;;;16.67;2.13;;;;;;;;;;5005211;28;20046;-59
2021/10/11 01:04:54;;;;;;;11.93;2.00;;;;;;;;;;5015061;28;20687;-59
2021/10/11 01:07:20;;;;;;;13.80;1.77;;;;;;;;;;5013509;28;20063;-60
2021/10/11 01:09:45;;;;;;;16.55;1.77;;;;;;;;;;4999109;28;20033;-59
2021/10/11 01:12:11;;;;;;;10.23;2.03;;;;;;;;;;5033134;28;20021;-60
2021/10/11 01:14:38;;;;;;;14.20;1.90;;;;;;;;;;5031850;28;20028;-59
2021/10/11 01:17:03;;;;;;;10.60;1.90;;;;;;;;;;5015159;28;20033;-59
2021/10/11 01:19:28;;;;;;;5.32;1.63;;;;;;;;;;5012638;28;20028;-59
2021/10/11 01:21:54;;;;;;;14.05;1.55;;;;;;;;;;5014490;28;20803;-59
2021/10/11 01:24:20;;;;;;;5.20;1.75;;;;;;;;;;5029748;28;20031;-59
2021/10/11 01:26:48;;;;;;;4.43;1.65;;;;;;;;;;5014251;28;20028;-59
2021/10/11 01:29:16;;;;;;;6.93;2.00;;;;;;;;;;5001841;28;20086;-59
2021/10/11 01:31:45;;;;;;;8.43;1.80;;;;;;;;;;5019173;28;20029;-59
2021/10/11 01:34:11;;;;;;;12.90;1.40;;;;;;;;;;5017790;28;20035;-59
2021/10/11 01:36:36;;;;;;;10.65;1.67;;;;;;;;;;5038452;28;20606;-59
2021/10/11 01:39:06;;;;;;;16.63;1.77;;;;;;;;;;5024582;28;20041;-60
2021/10/11 01:41:34;;;;;;;6.32;1.70;;;;;;;;;;5019114;28;20522;-59
2021/10/11 01:43:59;;;;;;;9.93;1.60;;;;;;;;;;5006776;28;20028;-58
2021/10/11 01:46:27;;;;;;;16.58;2.30;;;;;;;;;;5018123;28;20093;-58
2021/10/11 01:48:55;;;;;;;6.38;1.48;;;;;;;;;;5018877;28;20136;-58
2021/10/11 01:51:23;;;;;;;5.10;1.27;;;;;;;;;;5035550;28;20035;-58
2021/10/11 01:53:49;;;;;;;13.55;2.10;;;;;;;;;;5001431;28;21911;-60
2021/10/11 01:56:15;;;;;;;10.23;1.73;;;;;;;;;;5033748;28;20492;-59
2021/10/11 01:58:41;;;;;;;9.68;1.92;;;;;;;;;;5036111;28;20049;-59
2021/10/11 02:01:06;;;;;;;11.35;1.77;;;;;;;;;;5023376;28;20894;-59
2021/10/11 02:03:32;;;;;;;6.00;1.30;;;;;;;;;;5037208;28;20036;-59
2021/10/11 02:06:01;;;;;;;6.28;1.35;;;;;;;;;;5035207;28;20037;-60
2021/10/11 02:08:31;;;;;;;8.18;1.52;;;;;;;;;;5034926;28;20036;-59
2021/10/11 02:10:59;;;;;;;11.50;1.58;;;;;;;;;;5002591;28;20029;-59
2021/10/11 02:13:26;;;;;;;10.20;1.85;;;;;;;;;;5004390;28;20091;-58
2021/10/11 02:15:52;;;;;;;11.23;1.30;;;;;;;;;;5017873;28;20071;-58
2021/10/11 02:18:18;;;;;;;9.98;1.40;;;;;;;;;;5034255;28;20037;-58
2021/10/11 02:20:45;;;;;;;6.45;1.25;;;;;;;;;;4999748;28;20032;-58
2021/10/11 02:23:11;;;;;;;13.40;1.65;;;;;;;;;;4992319;28;20032;-59
2021/10/11 02:25:38;;;;;;;11.57;1.60;;;;;;;;;;5012318;28;20037;-59
2021/10/11 02:28:05;;;;;;;8.32;1.40;;;;;;;;;;5033377;28;20025;-59
2021/10/11 02:30:31;;;;;;;17.15;1.80;;;;;;;;;;5018127;28;20701;-59
2021/10/11 02:32:59;;;;;;;13.27;1.60;;;;;;;;;;5018343;28;20025;-59
2021/10/11 02:35:26;;;;;;;14.25;1.95;;;;;;;;;;5033484;28;20036;-59
2021/10/11 02:37:52;;;;;;;11.05;1.80;;;;;;;;;;5016413;28;20036;-59
2021/10/11 02:40:17;;;;;;;13.40;1.75;;;;;;;;;;5000048;28;20453;-60
2021/10/11 02:42:43;;;;;;;18.30;1.35;;;;;;;;;;5032895;28;20039;-58
2021/10/11 02:45:11;;;;;;;13.68;1.42;;;;;;;;;;5032524;28;20033;-58
2021/10/11 02:47:37;;;;;;;12.07;1.77;;;;;;;;;;5014236;28;20036;-58
2021/10/11 02:50:07;;;;;;;12.68;1.35;;;;;;;;;;5014008;28;20059;-58
2021/10/11 02:52:33;;;;;;;2.47;1.20;;;;;;;;;;5031277;28;20072;-59
2021/10/11 02:54:59;;;;;;;11.18;1.45;;;;;;;;;;5031644;28;20044;-59
2021/10/11 02:57:29;;;;;;;5.93;1.67;;;;;;;;;;5015150;28;20218;-60
2021/10/11 02:59:57;;;;;;;11.10;1.20;;;;;;;;;;4999575;28;20099;-59
2021/10/11 03:02:23;;;;;;;12.43;1.77;;;;;;;;;;5013591;28;20098;-59
2021/10/11 03:04:51;;;;;;;8.35;1.42;;;;;;;;;;5015896;28;20060;-59
2021/10/11 03:07:17;;;;;;;10.10;1.58;;;;;;;;;;4998753;28;20120;-59
2021/10/11 03:09:43;;;;;;;5.03;1.10;;;;;;;;;;5031704;28;20020;-59
2021/10/11 03:12:08;;;;;;;4.78;1.40;;;;;;;;;;5031081;28;20466;-59
2021/10/11 03:14:34;;;;;;;9.88;1.08;;;;;;;;;;5005645;28;20037;-59
2021/10/11 03:17:00;;;;;;;5.38;1.15;;;;;;;;;;5015928;28;20137;-59
2021/10/11 03:19:30;;;;;;;6.30;1.30;;;;;;;;;;5014433;28;20033;-59
2021/10/11 03:22:00;;;;;;;11.73;1.40;;;;;;;;;;5001363;28;20033;-59
2021/10/11 03:24:26;;;;;;;9.10;1.35;;;;;;;;;;5032401;28;20033;-59
2021/10/11 03:26:51;;;;;;;5.57;1.15;;;;;;;;;;5019828;28;22016;-59
2021/10/11 03:29:21;;;;;;;14.93;1.77;;;;;;;;;;4998064;28;20029;-60
2021/10/11 03:31:49;;;;;;;3.95;1.33;;;;;;;;;;4996363;28;20032;-58
2021/10/11 03:34:17;;;;;;;10.32;1.67;;;;;;;;;;5015094;28;20127;-59
2021/10/11 03:36:47;;;;;;;13.80;1.52;;;;;;;;;;5034061;28;20037;-60
2021/10/11 03:39:17;;;;;;;9.10;1.13;;;;;;;;;;5016135;28;20480;-59
2021/10/11 03:41:45;;;;;;;7.45;1.48;;;;;;;;;;4998498;28;20120;-59
2021/10/11 03:44:15;;;;;;;7.75;1.50;;;;;;;;;;5031345;28;20021;-60
2021/10/11 03:46:43;;;;;;;14.15;1.38;;;;;;;;;;5015363;28;20400;-59
2021/10/11 03:49:09;;;;;;;12.70;1.60;;;;;;;;;;5012980;28;20053;-60
2021/10/11 03:51:36;;;;;;;7.82;1.38;;;;;;;;;;5033285;28;20041;-60
2021/10/11 03:54:04;;;;;;;11.68;1.80;;;;;;;;;;4987170;28;20036;-59
2021/10/11 03:56:32;;;;;;;10.38;1.40;;;;;;;;;;5019001;28;20033;-59
2021/10/11 03:58:59;;;;;;;5.78;1.33;;;;;;;;;;5013285;28;20040;-59
2021/10/11 04:01:29;;;;;;;16.52;1.23;;;;;;;;;;5014332;28;20033;-60
2021/10/11 04:03:55;;;;;;;8.65;1.65;;;;;;;;;;5019257;28;20037;-58
2021/10/11 04:06:21;;;;;;;14.80;1.75;;;;;;;;;;4997852;28;20041;-59
2021/10/11 04:08:48;;;;;;;12.30;1.60;;;;;;;;;;4998438;28;20047;-59
2021/10/11 04:13:42;;;;;;;10.98;1.88;;;;;;;;;;5032133;28;20116;-59
2021/10/11 04:16:08;;;;;;;9.38;1.30;;;;;;;;;;5001417;28;20031;-59
2021/10/11 04:18:37;;;;;;;9.38;1.45;;;;;;;;;;5027905;28;20036;-59
2021/10/11 04:21:08;;;;;;;7.78;1.05;;;;;;;;;;5030789;28;20029;-58
2021/10/11 04:23:36;;;;;;;4.75;1.48;;;;;;;;;;5033471;28;20032;-58
2021/10/11 04:26:02;;;;;;;8.43;1.20;;;;;;;;;;4999252;28;20127;-59
2021/10/11 04:28:32;;;;;;;12.20;1.58;;;;;;;;;;5027088;28;20037;-59
2021/10/11 04:30:58;;;;;;;9.98;2.45;;;;;;;;;;5029403;28;20047;-59
2021/10/11 04:33:28;;;;;;;6.90;1.67;;;;;;;;;;5027560;28;20059;-58
2021/10/11 04:35:59;;;;;;;11.98;1.60;;;;;;;;;;5014407;28;20040;-59
2021/10/11 04:38:24;;;;;;;8.70;1.13;;;;;;;;;;5030517;28;20133;-59
2021/10/11 04:40:50;;;;;;;7.38;1.17;;;;;;;;;;5012832;28;20132;-58
2021/10/11 04:43:18;;;;;;;13.73;1.48;;;;;;;;;;5029411;28;20064;-59
2021/10/11 04:45:46;;;;;;;5.15;1.45;;;;;;;;;;4998920;28;20029;-59
2021/10/11 04:48:14;;;;;;;9.63;1.63;;;;;;;;;;5013058;28;20032;-60
2021/10/11 04:50:39;;;;;;;10.30;1.60;;;;;;;;;;5032659;28;20021;-59
2021/10/11 04:53:05;;;;;;;17.73;2.20;;;;;;;;;;5013595;28;20094;-60
2021/10/11 04:55:31;;;;;;;9.43;1.67;;;;;;;;;;5012221;28;20039;-60
2021/10/11 04:57:56;;;;;;;14.05;1.52;;;;;;;;;;5029023;28;20036;-61
2021/10/11 05:00:24;;;;;;;6.32;1.33;;;;;;;;;;5014240;28;20056;-59
2021/10/11 05:02:50;;;;;;;8.80;1.20;;;;;;;;;;4998042;28;20195;-59
2021/10/11 05:05:15;;;;;;;15.95;2.00;;;;;;;;;;5001417;28;20033;-59
2021/10/11 05:07:41;;;;;;;9.15;1.63;;;;;;;;;;5031334;28;20634;-60
2021/10/11 05:10:07;;;;;;;14.63;1.33;;;;;;;;;;5016541;28;20081;-60
2021/10/11 05:12:33;;;;;;;10.93;1.42;;;;;;;;;;5030231;28;20061;-59
2021/10/11 05:15:01;;;;;;;9.05;1.23;;;;;;;;;;5022365;28;20056;-59
2021/10/11 05:17:29;;;;;;;8.30;1.42;;;;;;;;;;5013021;28;20040;-59
2021/10/11 05:19:57;;;;;;;10.13;1.52;;;;;;;;;;5035482;28;20437;-59
2021/10/11 05:22:27;;;;;;;8.13;1.70;;;;;;;;;;5000579;28;20037;-60
2021/10/11 05:24:55;;;;;;;17.30;1.80;;;;;;;;;;5001508;28;20028;-59
2021/10/11 05:27:21;;;;;;;8.85;1.35;;;;;;;;;;5034365;28;20500;-59
2021/10/11 05:29:47;;;;;;;6.97;1.45;;;;;;;;;;5016337;28;20047;-59
2021/10/11 05:32:15;;;;;;;6.88;1.25;;;;;;;;;;5034014;28;22156;-59
2021/10/11 05:34:45;;;;;;;14.82;1.55;;;;;;;;;;5023084;28;20612;-60
2021/10/11 05:37:13;;;;;;;11.70;1.67;;;;;;;;;;5017258;28;20155;-60
2021/10/11 05:39:40;;;;;;;13.93;1.13;;;;;;;;;;5034578;28;20063;-60
2021/10/11 05:42:06;;;;;;;4.78;1.60;;;;;;;;;;5035185;28;20041;-60
2021/10/11 05:44:34;;;;;;;18.90;1.60;;;;;;;;;;5001961;28;20049;-60
2021/10/11 05:47:00;;;;;;;14.88;2.05;;;;;;;;;;5017697;28;20123;-59
2021/10/11 05:49:25;;;;;;;13.68;1.58;;;;;;;;;;5032994;28;20171;-59
2021/10/11 05:51:56;;;;;;;13.35;1.67;;;;;;;;;;5036343;28;21996;-61
2021/10/11 05:54:22;;;;;;;11.23;1.63;;;;;;;;;;5000662;28;20040;-59
2021/10/11 05:56:50;;;;;;;11.88;1.73;;;;;;;;;;5033245;28;20036;-59
2021/10/11 05:59:18;;;;;;;7.97;1.52;;;;;;;;;;5034535;28;20119;-59
2021/10/11 06:01:46;;;;;;;12.90;2.10;;;;;;;;;;5014711;28;20042;-59
2021/10/11 06:04:14;;;;;;;9.55;1.70;;;;;;;;;;5036579;28;20044;-60
2021/10/11 06:06:40;;;;;;;13.07;1.52;;;;;;;;;;5030928;28;20044;-59
2021/10/11 06:09:07;;;;;;;11.55;1.48;;;;;;;;;;5018752;28;20699;-59
2021/10/11 06:11:33;;;;;;;7.72;1.50;;;;;;;;;;5011637;28;20492;-59
2021/10/11 06:13:58;;;;;;;10.98;1.17;;;;;;;;;;4998740;28;20059;-59
2021/10/11 06:16:28;;;;;;;5.22;1.27;;;;;;;;;;5032898;28;20074;-61
2021/10/11 06:18:56;;;;;;;10.77;1.65;;;;;;;;;;5032791;28;20052;-59
2021/10/11 06:21:22;;;;;;;14.82;1.73;;;;;;;;;;5033965;28;20041;-61
2021/10/11 06:23:51;;;;;;;13.52;1.65;;;;;;;;;;5016986;28;20052;-61
2021/10/11 06:26:19;;;;;;;13.55;1.50;;;;;;;;;;5031926;28;20076;-58
2021/10/11 06:28:46;;;;;;;21.33;1.90;;;;;;;;;;5030133;28;20119;-58
2021/10/11 06:31:20;;;;;;;15.88;2.17;;;;;;;;;;5032969;28;20025;-58
2021/10/11 06:33:45;;;;;;;17.02;1.42;;;;;;;;;;5000450;28;20048;-58
2021/10/11 06:36:11;;;;;;;7.05;1.70;;;;;;;;;;5016828;28;20029;-59
2021/10/11 06:38:36;;;;;;;18.40;2.17;;;;;;;;;;5023117;28;20752;-59
2021/10/11 06:41:02;;;;;;;17.92;1.40;;;;;;;;;;4998484;28;20154;-59
2021/10/11 06:43:35;;;;;;;10.70;1.90;;;;;;;;;;5033102;28;20029;-59
2021/10/11 06:46:01;;;;;;;11.05;1.75;;;;;;;;;;5002101;28;20043;-59
2021/10/11 06:48:26;;;;;;;22.30;1.90;;;;;;;;;;5031156;28;20037;-59
2021/10/11 06:50:54;;;;;;;10.15;1.42;;;;;;;;;;5031746;28;20052;-58
2021/10/11 06:53:20;;;;;;;13.45;1.85;;;;;;;;;;5037005;28;20589;-58
2021/10/11 06:55:50;;;;;;;13.77;1.60;;;;;;;;;;4999849;28;20036;-58
2021/10/11 06:58:15;;;;;;;11.60;1.50;;;;;;;;;;5029973;28;20093;-59
2021/10/11 07:00:41;;;;;;;18.42;2.10;;;;;;;;;;5015483;28;20415;-59
2021/10/11 07:03:09;;;;;;;10.23;2.25;;;;;;;;;;4996479;28;20040;-58
2021/10/11 07:05:37;;;;;;;19.25;1.85;;;;;;;;;;5048006;28;20086;-59
2021/10/11 07:08:09;;;;;;;10.50;1.80;;;;;;;;;;5030874;28;20095;-59
2021/10/11 07:10:39;;;;;;;8.70;1.85;;;;;;;;;;5019847;28;20037;-59
2021/10/11 07:13:05;;;;;;;21.13;2.30;;;;;;;;;;5031978;28;21011;-59
2021/10/11 07:15:31;;;;;;;12.65;1.33;;;;;;;;;;5032459;28;20086;-60
2021/10/11 07:17:57;;;;;;;6.35;1.15;;;;;;;;;;5016151;28;20387;-62
2021/10/11 07:20:23;;;;;;;5.80;1.00;;;;;;;;;;5030813;28;20047;-58
2021/10/11 07:22:54;;;;;;;10.55;1.50;;;;;;;;;;5033421;28;20033;-59
2021/10/11 07:25:22;;;;;;;11.55;1.48;;;;;;;;;;5016930;28;20043;-59
2021/10/11 07:27:50;;;;;;;10.40;1.42;;;;;;;;;;5034526;28;20040;-59
2021/10/11 07:30:19;;;;;;;17.48;1.30;;;;;;;;;;5032718;28;20036;-59
2021/10/11 07:32:47;;;;;;;20.10;1.45;;;;;;;;;;5031841;28;20016;-60
2021/10/11 07:35:12;;;;;;;4.93;0.80;;;;;;;;;;4997532;28;20029;-61
2021/10/11 07:37:40;;;;;;;10.55;0.70;;;;;;;;;;5016512;28;20087;-60
2021/10/11 07:40:06;;;;;;;11.73;0.82;;;;;;;;;;5033309;28;20043;-59
2021/10/11 07:42:34;;;;;;;4.35;0.70;;;;;;;;;;5014797;28;20124;-60
2021/10/11 07:45:02;;;;;;;8.43;1.05;;;;;;;;;;5035473;28;20198;-60
2021/10/11 07:47:33;;;;;;;19.90;1.15;;;;;;;;;;5016913;28;20052;-60
2021/10/11 07:50:00;;;;;;;10.50;1.20;;;;;;;;;;5003111;28;20048;-60
2021/10/11 07:52:26;;;;;;;7.30;1.08;;;;;;;;;;5003514;28;20036;-58
2021/10/11 07:54:51;;;;;;;14.23;1.30;;;;;;;;;;5033417;28;20163;-59
2021/10/11 07:57:19;;;;;;;6.65;1.02;;;;;;;;;;5015055;28;20060;-58
2021/10/11 07:59:45;;;;;;;1.27;0.57;;;;;;;;;;5030180;28;20129;-59
2021/10/11 08:02:12;;;;;;;14.43;1.45;;;;;;;;;;4997019;28;20063;-60
2021/10/11 08:04:42;;;;;;;5.70;0.90;;;;;;;;;;5001435;28;20060;-60
2021/10/11 08:07:10;;;;;;;2.08;1.20;;;;;;;;;;5014185;28;20961;-59
2021/10/11 08:09:41;;;;;;;5.15;0.55;;;;;;;;;;5033998;28;20040;-59
2021/10/11 08:12:08;;;;;;;11.40;0.80;;;;;;;;;;5016613;28;20033;-60
2021/10/11 08:14:37;;;;;;;3.88;1.20;;;;;;;;;;5022605;28;20033;-60
2021/10/11 08:17:03;;;;;;;6.15;1.67;;;;;;;;;;5015401;28;20357;-59
2021/10/11 08:19:30;;;;;;;6.70;1.17;;;;;;;;;;4999498;28;20120;-60
2021/10/11 08:21:56;;;;;;;10.60;1.17;;;;;;;;;;5020135;28;20064;-59
2021/10/11 08:24:24;;;;;;;4.75;0.90;;;;;;;;;;5003356;28;20501;-59
2021/10/11 08:26:52;;;;;;;11.10;1.30;;;;;;;;;;5031878;28;20063;-60
2021/10/11 08:29:18;;;;;;;11.55;1.30;;;;;;;;;;5019349;28;21960;-61
2021/10/11 08:31:44;;;;;;;6.25;1.10;;;;;;;;;;5031140;28;20044;-60
2021/10/11 08:34:09;;;;;;;8.38;1.35;;;;;;;;;;5031862;28;20052;-60
2021/10/11 08:36:35;;;;;;;10.63;1.13;;;;;;;;;;5033082;28;20778;-59
2021/10/11 08:39:01;;;;;;;6.00;1.05;;;;;;;;;;4997510;28;20028;-60
2021/10/11 08:41:29;;;;;;;7.70;1.77;;;;;;;;;;5031753;28;20033;-60
2021/10/11 08:43:58;;;;;;;7.50;1.35;;;;;;;;;;5034078;28;20510;-60
2021/10/11 08:46:25;;;;;;;5.88;0.93;;;;;;;;;;5000857;28;20068;-60
2021/10/11 08:48:53;;;;;;;13.50;1.30;;;;;;;;;;5031386;28;20973;-59
2021/10/11 08:51:19;;;;;;;11.93;1.80;;;;;;;;;;5013594;28;20089;-60
2021/10/11 08:53:47;;;;;;;15.10;1.60;;;;;;;;;;5005957;28;20068;-58
2021/10/11 08:56:13;;;;;;;7.93;1.10;;;;;;;;;;5012788;28;20044;-59
2021/10/11 08:58:41;;;;;;;5.55;0.85;;;;;;;;;;5013543;28;20021;-59
2021/10/11 09:01:07;;;;;;;8.85;1.67;;;;;;;;;;5030517;28;20033;-59
2021/10/11 09:03:36;;;;;;;9.13;1.20;;;;;;;;;;5016435;28;21048;-59
2021/10/11 09:06:11;;;;;;;7.35;1.17;;;;;;;;;;5031939;28;20020;-60
2021/10/11 09:08:42;;;;;;;13.00;1.48;;;;;;;;;;5032583;28;20647;-60
2021/10/11 09:11:10;;;;;;;9.15;1.38;;;;;;;;;;5031718;28;20029;-60
2021/10/11 09:13:41;;;;;;;9.43;1.60;;;;;;;;;;5014085;28;20125;-59
2021/10/11 09:16:45;;;;;;;10.13;1.27;;;;;;;;;;5032510;28;20025;-61
2021/10/11 09:19:12;;;;;;;8.57;1.30;;;;;;;;;;5047853;28;20942;-60
2021/10/11 09:21:40;;;;;;;6.07;1.27;;;;;;;;;;5028348;28;20045;-58
2021/10/11 09:24:17;;;;;;;5.63;0.85;;;;;;;;;;5014240;28;20470;-59
2021/10/11 09:26:50;;;;;;;6.85;1.50;;;;;;;;;;5033043;28;20040;-59
2021/10/11 09:29:26;;;;;;;12.65;1.45;;;;;;;;;;5032023;28;20168;-59
2021/10/11 09:31:54;;;;;;;6.63;0.85;;;;;;;;;;5031665;28;20071;-59
2021/10/11 09:34:20;;;;;;;7.60;0.98;;;;;;;;;;4999549;28;20041;-59
2021/10/11 09:37:02;;;;;;;4.57;0.68;;;;;;;;;;5034396;28;20044;-61
2021/10/11 09:39:29;;;;;;;7.93;1.25;;;;;;;;;;5028038;28;20526;-59
2021/10/11 09:41:55;;;;;;;10.68;0.75;;;;;;;;;;5028760;28;20041;-61
2021/10/11 09:44:21;;;;;;;9.85;1.10;;;;;;;;;;5017409;28;20032;-59
2021/10/11 09:46:47;;;;;;;4.10;0.45;;;;;;;;;;5029970;28;20037;-59
2021/10/11 09:49:17;;;;;;;5.07;0.80;;;;;;;;;;5013121;28;20045;-60
2021/10/11 09:51:47;;;;;;;6.60;0.82;;;;;;;;;;5015321;28;20059;-61
2021/10/11 09:54:16;;;;;;;6.25;1.10;;;;;;;;;;5001064;28;20040;-59
2021/10/11 09:56:47;;;;;;;4.22;0.88;;;;;;;;;;5032522;28;20035;-59
2021/10/11 09:59:16;;;;;;;6.45;0.85;;;;;;;;;;5033490;28;20120;-61
2021/10/11 10:01:43;;;;;;;4.05;0.82;;;;;;;;;;5030912;28;20032;-59
2021/10/11 10:04:29;;;;;;;9.25;1.42;;;;;;;;;;5036552;28;20032;-60
2021/10/11 10:06:55;;;;;;;5.65;0.90;;;;;;;;;;5017948;28;20033;-60
2021/10/11 10:09:25;;;;;;;10.43;1.25;;;;;;;;;;5035053;28;20026;-60
2021/10/11 10:11:50;;;;;;;4.85;0.82;;;;;;;;;;5034011;28;20024;-59
2021/10/11 10:14:19;;;;;;;8.05;1.20;;;;;;;;;;5021910;28;20393;-61
2021/10/11 10:16:48;;;;;;;4.18;1.33;;;;;;;;;;5033486;28;20033;-61
2021/10/11 10:19:35;;;;;;;4.65;0.68;;;;;;;;;;5035625;28;20075;-60
2021/10/11 10:22:10;;;;;;;10.43;1.05;;;;;;;;;;5029916;28;20166;-61
2021/10/11 10:24:38;;;;;;;4.88;0.70;;;;;;;;;;5004812;28;20151;-60
2021/10/11 10:27:05;;;;;;;5.45;0.60;;;;;;;;;;5004836;28;20044;-60
2021/10/11 10:29:41;;;;;;;8.02;0.80;;;;;;;;;;5031972;28;20033;-60
2021/10/11 10:32:07;;;;;;;5.00;0.60;;;;;;;;;;5034751;28;20044;-60
2021/10/11 10:34:33;;;;;;;4.95;0.50;;;;;;;;;;5022711;28;20087;-61
2021/10/11 10:37:00;;;;;;;7.93;0.90;;;;;;;;;;5031552;28;20379;-62
2021/10/11 10:39:38;;;;;;;7.55;0.93;;;;;;;;;;5018229;28;20043;-60
2021/10/11 10:42:03;;;;;;;3.35;0.82;;;;;;;;;;5033091;28;20043;-60
2021/10/11 10:44:32;;;;;;;3.47;0.80;;;;;;;;;;5031889;28;20024;-60
2021/10/11 10:46:59;;;;;;;5.10;0.85;;;;;;;;;;5032945;28;20041;-60
2021/10/11 10:49:32;;;;;;;5.05;0.90;;;;;;;;;;5034680;28;20040;-61
2021/10/11 10:52:04;;;;;;;9.27;1.00;;;;;;;;;;5018540;28;20028;-61
2021/10/11 10:54:37;;;;;;;2.25;0.70;;;;;;;;;;5016860;28;20039;-60
2021/10/11 10:57:06;;;;;;;6.07;0.80;;;;;;;;;;5034274;28;20031;-61
2021/10/11 10:59:31;;;;;;;6.00;1.27;;;;;;;;;;5031229;28;20047;-60
2021/10/11 11:02:08;;;;;;;8.40;0.90;;;;;;;;;;5014223;28;20037;-61
2021/10/11 11:04:34;;;;;;;6.07;0.95;;;;;;;;;;5032156;28;20056;-61
2021/10/11 11:07:03;;;;;;;8.25;0.85;;;;;;;;;;5031633;28;20044;-61
2021/10/11 11:09:39;;;;;;;5.03;0.70;;;;;;;;;;5034768;28;20032;-61
2021/10/11 11:12:05;;;;;;;2.80;0.65;;;;;;;;;;5023928;28;20128;-61
2021/10/11 11:14:30;;;;;;;6.88;1.00;;;;;;;;;;5016925;28;21019;-61
2021/10/11 11:16:56;;;;;;;10.25;1.27;;;;;;;;;;5031764;28;20675;-61
2021/10/11 11:19:34;;;;;;;7.53;1.00;;;;;;;;;;5018631;28;20574;-61
2021/10/11 11:21:59;;;;;;;7.85;1.23;;;;;;;;;;5016743;28;20036;-62
2021/10/11 11:24:27;;;;;;;7.72;1.13;;;;;;;;;;4994226;28;20124;-61
2021/10/11 11:26:52;;;;;;;3.17;1.08;;;;;;;;;;5014720;28;20086;-58
2021/10/11 11:29:20;;;;;;;3.22;0.63;;;;;;;;;;5015982;28;20055;-59
2021/10/11 11:31:50;;;;;;;6.03;0.60;;;;;;;;;;5005375;28;20045;-58
2021/10/11 11:34:15;;;;;;;5.70;0.90;;;;;;;;;;5015272;28;20025;-59
2021/10/11 11:36:57;;;;;;;8.10;0.80;;;;;;;;;;5033373;28;20908;-58
2021/10/11 11:39:25;;;;;;;4.20;0.82;;;;;;;;;;5015541;28;20492;-60
2021/10/11 11:41:54;;;;;;;4.72;0.88;;;;;;;;;;5015073;28;20029;-58
2021/10/11 11:44:23;;;;;;;3.78;0.38;;;;;;;;;;5032535;28;20043;-60
2021/10/11 11:47:00;;;;;;;2.83;0.52;;;;;;;;;;5014964;28;20032;-59
2021/10/11 11:49:26;;;;;;;2.40;0.93;;;;;;;;;;5031328;28;20130;-59
2021/10/11 11:52:02;;;;;;;5.90;0.82;;;;;;;;;;4999418;28;20104;-59
2021/10/11 11:54:27;;;;;;;3.08;0.68;;;;;;;;;;5023280;28;20171;-58
2021/10/11 11:56:58;;;;;;;7.72;0.70;;;;;;;;;;5032745;28;20032;-59
2021/10/11 11:59:27;;;;;;;4.05;0.82;;;;;;;;;;5032334;28;20491;-59
2021/10/11 12:01:53;;;;;;;7.25;1.40;;;;;;;;;;5030995;28;20056;-60
2021/10/11 12:04:21;;;;;;;6.05;0.95;;;;;;;;;;5014093;28;20483;-60
2021/10/11 12:06:49;;;;;;;4.60;0.82;;;;;;;;;;5031046;28;20033;-60
2021/10/11 12:09:19;;;;;;;6.13;0.52;;;;;;;;;;5032289;28;20037;-60
2021/10/11 12:11:44;;;;;;;1.88;0.43;;;;;;;;;;5015342;28;20727;-59
2021/10/11 12:14:10;;;;;;;2.45;0.60;;;;;;;;;;5014282;28;20040;-59
2021/10/11 12:16:40;;;;;;;6.18;0.60;;;;;;;;;;5016531;28;20052;-59
2021/10/11 12:19:06;;;;;;;9.40;0.77;;;;;;;;;;5014863;28;20099;-60
2021/10/11 12:21:32;;;;;;;7.15;0.60;;;;;;;;;;5032065;28;20487;-59
2021/10/11 12:23:59;;;;;;;1.15;0.50;;;;;;;;;;5034109;28;20087;-60
2021/10/11 12:26:25;;;;;;;3.58;0.70;;;;;;;;;;5032187;28;20129;-60
2021/10/11 12:28:55;;;;;;;4.05;0.60;;;;;;;;;;5032283;28;20047;-60
2021/10/11 12:31:24;;;;;;;1.75;0.60;;;;;;;;;;5027723;28;20187;-60
2021/10/11 12:33:51;;;;;;;5.25;0.40;;;;;;;;;;5033536;28;20025;-60
2021/10/11 12:36:17;;;;;;;5.20;0.80;;;;;;;;;;5021897;28;20534;-60
2021/10/11 12:38:44;;;;;;;5.13;0.93;;;;;;;;;;5013684;28;20044;-59
2021/10/11 12:41:16;;;;;;;3.22;0.65;;;;;;;;;;5031814;28;20053;-60
2021/10/11 12:44:17;;;;;;;4.07;0.77;;;;;;;;;;5014367;28;20033;-60
2021/10/11 12:46:44;;;;;;;2.72;0.40;;;;;;;;;;5027970;28;20127;-60
2021/10/11 12:49:10;;;;;;;3.90;0.80;;;;;;;;;;5030629;28;20078;-60
2021/10/11 12:51:43;;;;;;;5.57;0.73;;;;;;;;;;5014565;28;20165;-60
2021/10/11 12:54:10;;;;;;;5.53;0.93;;;;;;;;;;5033255;28;20040;-61
2021/10/11 12:56:37;;;;;;;2.80;0.77;;;;;;;;;;5032397;28;20260;-60
2021/10/11 12:59:04;;;;;;;2.50;0.45;;;;;;;;;;5031715;28;20029;-59
2021/10/11 13:01:32;;;;;;;4.72;0.70;;;;;;;;;;5017981;28;20693;-59
2021/10/11 13:03:58;;;;;;;2.95;0.90;;;;;;;;;;5030624;28;21150;-61
2021/10/11 13:06:25;;;;;;;2.40;0.47;;;;;;;;;;5029810;28;20135;-60
2021/10/11 13:08:53;;;;;;;3.42;0.57;;;;;;;;;;5036145;28;20021;-60
2021/10/11 13:11:19;;;;;;;4.38;0.63;;;;;;;;;;5002139;28;20070;-59
2021/10/11 13:13:47;;;;;;;3.67;0.65;;;;;;;;;;5031046;28;20033;-60
2021/10/11 13:16:20;;;;;;;3.67;0.40;;;;;;;;;;5031472;28;20129;-60
2021/10/11 13:18:46;;;;;;;2.50;0.60;;;;;;;;;;5015852;28;20989;-62
2021/10/11 13:21:12;;;;;;;2.20;0.60;;;;;;;;;;5015432;28;20044;-63
2021/10/11 13:23:43;;;;;;;2.60;0.70;;;;;;;;;;5032127;28;20399;-61
2021/10/11 13:26:09;;;;;;;3.25;0.52;;;;;;;;;;5015779;28;20036;-61
2021/10/11 13:28:38;;;;;;;5.13;0.77;;;;;;;;;;5014354;28;20067;-60
2021/10/11 14:28:09;;;;;;;6.70;0.73;;;;;;;;;;5031756;28;20557;-60
2021/10/11 16:01:13;;;;;;;9.00;1.02;;;;;;;;;;5034741;28;20232;-60
2021/10/11 16:05:55;;;;;;;11.80;0.80;;;;;;;;;;5034896;28;20167;-59
2021/10/11 16:08:26;;;;;;;5.18;0.73;;;;;;;;;;5030378;28;20059;-60
2021/10/11 16:10:52;;;;;;;3.53;0.55;;;;;;;;;;5024052;28;20102;-60
2021/10/11 16:13:18;;;;;;;9.30;0.75;;;;;;;;;;5033534;28;20040;-60
2021/10/11 16:15:45;;;;;;;4.28;0.77;;;;;;;;;;5032714;28;20037;-60
2021/10/11 16:18:11;;;;;;;6.53;1.17;;;;;;;;;;5037555;28;22077;-59
2021/10/11 16:20:41;;;;;;;5.05;0.98;;;;;;;;;;5014558;28;20051;-59
2021/10/11 16:23:07;;;;;;;1.80;0.90;;;;;;;;;;5030113;28;20094;-60
2021/10/11 16:25:35;;;;;;;4.47;0.80;;;;;;;;;;5031827;28;21019;-60
2021/10/11 16:28:06;;;;;;;7.25;0.85;;;;;;;;;;5014276;28;20123;-60
2021/10/11 16:30:34;;;;;;;2.78;0.70;;;;;;;;;;5031645;28;20036;-60
2021/10/11 16:33:05;;;;;;;5.55;0.85;;;;;;;;;;5031350;28;20029;-61
2021/10/11 16:35:32;;;;;;;6.72;0.85;;;;;;;;;;5032190;28;20032;-59
2021/10/11 16:37:57;;;;;;;11.45;0.90;;;;;;;;;;5031327;28;20083;-59
2021/10/11 16:40:23;;;;;;;4.45;0.80;;;;;;;;;;4996936;28;21028;-60
2021/10/11 16:42:51;;;;;;;10.00;1.00;;;;;;;;;;5033069;28;20028;-60
2021/10/11 16:45:17;;;;;;;5.88;0.75;;;;;;;;;;4999844;28;20798;-60
2021/10/11 16:47:42;;;;;;;9.00;1.30;;;;;;;;;;5030737;28;20116;-60
2021/10/11 16:50:08;;;;;;;5.35;1.20;;;;;;;;;;5013771;28;20045;-61
2021/10/11 16:52:37;;;;;;;5.95;0.82;;;;;;;;;;5016118;28;21153;-61
2021/10/11 16:55:02;;;;;;;8.25;1.00;;;;;;;;;;5015562;28;20032;-60
2021/10/11 16:57:31;;;;;;;7.32;1.05;;;;;;;;;;5029508;28;20193;-60
2021/10/11 16:59:57;;;;;;;2.83;0.68;;;;;;;;;;5011082;28;20033;-61
2021/10/11 17:02:24;;;;;;;5.30;0.77;;;;;;;;;;5031473;28;20041;-60
2021/10/11 17:04:49;;;;;;;5.70;0.70;;;;;;;;;;5029311;28;20105;-60
2021/10/11 17:07:15;;;;;;;3.58;0.40;;;;;;;;;;5016558;28;20060;-59
2021/10/11 17:09:40;;;;;;;10.40;1.02;;;;;;;;;;5000503;28;20043;-60
2021/10/11 17:12:06;;;;;;;6.88;0.60;;;;;;;;;;5022781;28;22039;-60
2021/10/11 17:14:36;;;;;;;3.00;0.75;;;;;;;;;;5017407;28;20029;-61